PUA9533 SUMU-SBPS
Flight info
| Callsign | PUA9533 |
|---|---|
| Flight time | N/A |
| Altitude | 37000 |
| Route | MOLBI UM540 ITBEB UN857 XUVUD |
| Aircraft | A320/M-SDE3FGHIRWY/LB1 |
Departure
| Time | N/A |
|---|---|
| Airport | Carrasco General Cesáreo L. Berisso International Airport (SUMU) |
Arrival
| Time | 2026-04-30 02:13 |
|---|---|
| Airport | Porto Seguro International Airport (SBPS) |
| Time | Latitude | Longitude | Altitude | Speed | Heading |
|---|---|---|---|---|---|
| 2026-04-29 23:18 | -31.53115 | -52.56088 | 37035 ft | 473 kts | 30° |
| 2026-04-29 23:18 | -31.48230 | -52.50927 | 37026 ft | 473 kts | 30° |
| 2026-04-29 23:19 | -31.43350 | -52.45762 | 37025 ft | 473 kts | 29° |
| 2026-04-29 23:19 | -31.38488 | -52.40641 | 37016 ft | 473 kts | 29° |
| 2026-04-29 23:20 | -31.33601 | -52.35498 | 37013 ft | 473 kts | 29° |
| 2026-04-29 23:20 | -31.28700 | -52.30357 | 37012 ft | 472 kts | 29° |
| 2026-04-29 23:21 | -31.23790 | -52.25217 | 37013 ft | 473 kts | 29° |
| 2026-04-29 23:21 | -31.18896 | -52.20089 | 37020 ft | 473 kts | 29° |
| 2026-04-29 23:22 | -31.14004 | -52.14961 | 37019 ft | 473 kts | 28° |
| 2026-04-29 23:22 | -31.09097 | -52.09838 | 37016 ft | 473 kts | 28° |
| 2026-04-29 23:23 | -31.04227 | -52.04766 | 37012 ft | 473 kts | 28° |
| 2026-04-29 23:23 | -30.99321 | -51.99660 | 37014 ft | 473 kts | 28° |
| 2026-04-29 23:24 | -30.94406 | -51.94551 | 37017 ft | 473 kts | 28° |
| 2026-04-29 23:24 | -30.89487 | -51.89446 | 37020 ft | 473 kts | 28° |
| 2026-04-29 23:25 | -30.84574 | -51.84356 | 37023 ft | 473 kts | 28° |
| 2026-04-29 23:25 | -30.79660 | -51.79265 | 37026 ft | 473 kts | 28° |
| 2026-04-29 23:26 | -30.74727 | -51.74165 | 37038 ft | 473 kts | 28° |
| 2026-04-29 23:26 | -30.69843 | -51.69119 | 37031 ft | 473 kts | 28° |
| 2026-04-29 23:27 | -30.64927 | -51.64045 | 37026 ft | 473 kts | 28° |
| 2026-04-29 23:27 | -30.60002 | -51.58971 | 37029 ft | 473 kts | 28° |
| 2026-04-29 23:28 | -30.55911 | -51.54765 | 37020 ft | 472 kts | 28° |
| 2026-04-29 23:28 | -30.50982 | -51.49734 | 37022 ft | 472 kts | 27° |
| 2026-04-29 23:29 | -30.46019 | -51.44783 | 37022 ft | 470 kts | 27° |
| 2026-04-29 23:29 | -30.41034 | -51.39847 | 37024 ft | 471 kts | 27° |
| 2026-04-29 23:30 | -30.36052 | -51.34902 | 37021 ft | 471 kts | 27° |
| 2026-04-29 23:30 | -30.31071 | -51.29953 | 37048 ft | 474 kts | 30° |
| 2026-04-29 23:31 | -30.26060 | -51.24971 | 37052 ft | 475 kts | 30° |
| 2026-04-29 23:31 | -30.21046 | -51.19983 | 37044 ft | 475 kts | 30° |
| 2026-04-29 23:32 | -30.16042 | -51.15016 | 37033 ft | 474 kts | 30° |
| 2026-04-29 23:32 | -30.11065 | -51.10101 | 37028 ft | 474 kts | 30° |
| 2026-04-29 23:33 | -30.06047 | -51.05150 | 37027 ft | 474 kts | 30° |
| 2026-04-29 23:33 | -30.01041 | -51.00204 | 37056 ft | 474 kts | 30° |
| 2026-04-29 23:34 | -29.96021 | -50.95260 | 37048 ft | 474 kts | 30° |
| 2026-04-29 23:34 | -29.91008 | -50.90329 | 37050 ft | 474 kts | 30° |
| 2026-04-29 23:35 | -29.85967 | -50.85457 | 37049 ft | 471 kts | 28° |
| 2026-04-29 23:35 | -29.80773 | -50.80898 | 37048 ft | 467 kts | 26° |
| 2026-04-29 23:36 | -29.75528 | -50.76480 | 37048 ft | 467 kts | 26° |
| 2026-04-29 23:36 | -29.70303 | -50.72016 | 37051 ft | 468 kts | 26° |
| 2026-04-29 23:37 | -29.65110 | -50.67489 | 37054 ft | 469 kts | 27° |
| 2026-04-29 23:37 | -29.59915 | -50.62954 | 37060 ft | 468 kts | 27° |
| 2026-04-29 23:38 | -29.54722 | -50.58446 | 37070 ft | 468 kts | 27° |
| 2026-04-29 23:38 | -29.49856 | -50.53321 | 37070 ft | 480 kts | 37° |
| 2026-04-29 23:39 | -29.45265 | -50.47745 | 37079 ft | 481 kts | 37° |
| 2026-04-29 23:39 | -29.40669 | -50.42162 | 37102 ft | 480 kts | 37° |
| 2026-04-29 23:40 | -29.36084 | -50.36606 | 37091 ft | 479 kts | 37° |
| 2026-04-29 23:40 | -29.31525 | -50.31098 | 37094 ft | 478 kts | 37° |
| 2026-04-29 23:41 | -29.26914 | -50.25544 | 37099 ft | 478 kts | 37° |
| 2026-04-29 23:41 | -29.22337 | -50.20036 | 37095 ft | 477 kts | 37° |
| 2026-04-29 23:42 | -29.17768 | -50.14544 | 37096 ft | 476 kts | 37° |
| 2026-04-29 23:42 | -29.13226 | -50.09094 | 37091 ft | 475 kts | 37° |
| 2026-04-29 23:43 | -29.08670 | -50.03633 | 37092 ft | 474 kts | 37° |
| 2026-04-29 23:43 | -29.04112 | -49.98168 | 37095 ft | 474 kts | 37° |
| 2026-04-29 23:44 | -28.99568 | -49.92725 | 37073 ft | 472 kts | 37° |
| 2026-04-29 23:44 | -28.95032 | -49.87291 | 37086 ft | 473 kts | 37° |
| 2026-04-29 23:45 | -28.90480 | -49.81861 | 37084 ft | 472 kts | 36° |
| 2026-04-29 23:45 | -28.85999 | -49.76375 | 37082 ft | 473 kts | 38° |
| 2026-04-29 23:46 | -28.81634 | -49.70802 | 37086 ft | 473 kts | 39° |
| 2026-04-29 23:46 | -28.77255 | -49.65210 | 37076 ft | 472 kts | 38° |
| 2026-04-29 23:47 | -28.72848 | -49.59662 | 37077 ft | 471 kts | 38° |
| 2026-04-29 23:47 | -28.68430 | -49.54144 | 37078 ft | 470 kts | 38° |
| 2026-04-29 23:48 | -28.64026 | -49.48638 | 37074 ft | 470 kts | 38° |
| 2026-04-29 23:48 | -28.59631 | -49.43138 | 37071 ft | 470 kts | 38° |
| 2026-04-29 23:49 | -28.55231 | -49.37636 | 37066 ft | 469 kts | 38° |
| 2026-04-29 23:49 | -28.50833 | -49.32143 | 37068 ft | 469 kts | 38° |
| 2026-04-29 23:50 | -28.46470 | -49.26699 | 37064 ft | 469 kts | 38° |
| 2026-04-29 23:51 | -28.39872 | -49.18487 | 37061 ft | 468 kts | 38° |
| 2026-04-29 23:51 | -28.35479 | -49.13028 | 37061 ft | 468 kts | 37° |
| 2026-04-29 23:52 | -28.31085 | -49.07575 | 37068 ft | 468 kts | 37° |
| 2026-04-29 23:52 | -28.26688 | -49.02133 | 37059 ft | 468 kts | 37° |
| 2026-04-29 23:53 | -28.22313 | -48.96656 | 37049 ft | 468 kts | 37° |
| 2026-04-29 23:53 | -28.17955 | -48.91170 | 37051 ft | 468 kts | 37° |
| 2026-04-29 23:54 | -28.13593 | -48.85683 | 37049 ft | 468 kts | 37° |
| 2026-04-29 23:54 | -28.09253 | -48.80244 | 37041 ft | 468 kts | 37° |
| 2026-04-29 23:55 | -28.04879 | -48.74793 | 37044 ft | 468 kts | 38° |
| 2026-04-29 23:55 | -28.00500 | -48.69340 | 37034 ft | 468 kts | 37° |
| 2026-04-29 23:56 | -27.96117 | -48.63873 | 37033 ft | 468 kts | 37° |
| 2026-04-29 23:56 | -27.91731 | -48.58418 | 37024 ft | 468 kts | 36° |
| 2026-04-29 23:57 | -27.87345 | -48.52979 | 37017 ft | 468 kts | 36° |
| 2026-04-29 23:57 | -27.82950 | -48.47528 | 37012 ft | 469 kts | 36° |
| 2026-04-29 23:58 | -27.78561 | -48.42080 | 37012 ft | 469 kts | 36° |
| 2026-04-29 23:58 | -27.74158 | -48.36624 | 37003 ft | 470 kts | 36° |
| 2026-04-29 23:59 | -27.69754 | -48.31181 | 37014 ft | 470 kts | 36° |
| 2026-04-29 23:59 | -27.65366 | -48.25769 | 37023 ft | 470 kts | 36° |
| 2026-04-30 00:00 | -27.60957 | -48.20327 | 37016 ft | 470 kts | 36° |
| 2026-04-30 00:00 | -27.56545 | -48.14891 | 37035 ft | 470 kts | 36° |
| 2026-04-30 00:01 | -27.52121 | -48.09457 | 37040 ft | 470 kts | 35° |
| 2026-04-30 00:01 | -27.47707 | -48.04038 | 37044 ft | 469 kts | 35° |
| 2026-04-30 00:02 | -27.43289 | -47.98614 | 37042 ft | 469 kts | 35° |
| 2026-04-30 00:02 | -27.38903 | -47.93235 | 37047 ft | 469 kts | 35° |
| 2026-04-30 00:03 | -27.34477 | -47.87851 | 37053 ft | 468 kts | 35° |
| 2026-04-30 00:03 | -27.30050 | -47.82501 | 37051 ft | 467 kts | 35° |
| 2026-04-30 00:04 | -27.25623 | -47.77143 | 37046 ft | 467 kts | 35° |
| 2026-04-30 00:04 | -27.21209 | -47.71798 | 37047 ft | 467 kts | 35° |
| 2026-04-30 00:05 | -27.16793 | -47.66466 | 37042 ft | 466 kts | 35° |
| 2026-04-30 00:05 | -27.12368 | -47.61141 | 37043 ft | 466 kts | 36° |
| 2026-04-30 00:06 | -27.07953 | -47.55825 | 37043 ft | 466 kts | 36° |
| 2026-04-30 00:06 | -27.03539 | -47.50514 | 37040 ft | 466 kts | 36° |
| 2026-04-30 00:07 | -26.99116 | -47.45194 | 37036 ft | 466 kts | 36° |
| 2026-04-30 00:07 | -26.94692 | -47.39890 | 37038 ft | 466 kts | 36° |
| 2026-04-30 00:08 | -26.90286 | -47.34608 | 37029 ft | 467 kts | 37° |
| 2026-04-30 00:08 | -26.85845 | -47.29295 | 37026 ft | 468 kts | 37° |
| 2026-04-30 00:09 | -26.81381 | -47.23970 | 37025 ft | 469 kts | 37° |
| 2026-04-30 00:09 | -26.76919 | -47.18632 | 37020 ft | 470 kts | 37° |
| 2026-04-30 00:10 | -26.72430 | -47.13278 | 37020 ft | 472 kts | 36° |
| 2026-04-30 00:10 | -26.67946 | -47.07955 | 37018 ft | 473 kts | 36° |
| 2026-04-30 00:11 | -26.63411 | -47.02586 | 37018 ft | 475 kts | 36° |
| 2026-04-30 00:11 | -26.58870 | -46.97206 | 37020 ft | 477 kts | 36° |
| 2026-04-30 00:12 | -26.54304 | -46.91829 | 37020 ft | 478 kts | 36° |
| 2026-04-30 00:12 | -26.49711 | -46.86451 | 37022 ft | 478 kts | 36° |
| 2026-04-30 00:13 | -26.45123 | -46.81077 | 37021 ft | 478 kts | 36° |
| 2026-04-30 00:13 | -26.40534 | -46.75687 | 37027 ft | 478 kts | 36° |
| 2026-04-30 00:14 | -26.35956 | -46.70311 | 37030 ft | 478 kts | 36° |
| 2026-04-30 00:14 | -26.31371 | -46.64934 | 37034 ft | 478 kts | 36° |
| 2026-04-30 00:15 | -26.26806 | -46.59616 | 37036 ft | 477 kts | 36° |
| 2026-04-30 00:15 | -26.22216 | -46.54282 | 37034 ft | 477 kts | 36° |
| 2026-04-30 00:16 | -26.17786 | -46.49136 | 37043 ft | 477 kts | 36° |
| 2026-04-30 00:16 | -26.13204 | -46.43801 | 37039 ft | 477 kts | 36° |
| 2026-04-30 00:17 | -26.09391 | -46.39367 | 37034 ft | 477 kts | 36° |
| 2026-04-30 00:17 | -26.04814 | -46.34038 | 37035 ft | 476 kts | 37° |
| 2026-04-30 00:18 | -26.00227 | -46.28715 | 37034 ft | 476 kts | 37° |
| 2026-04-30 00:18 | -25.95646 | -46.23416 | 37039 ft | 475 kts | 37° |
| 2026-04-30 00:19 | -25.91064 | -46.18121 | 37042 ft | 475 kts | 37° |
| 2026-04-30 00:19 | -25.86493 | -46.12837 | 37040 ft | 474 kts | 37° |
| 2026-04-30 00:20 | -25.81923 | -46.07558 | 37039 ft | 474 kts | 37° |
| 2026-04-30 00:20 | -25.77359 | -46.02289 | 37038 ft | 474 kts | 37° |
| 2026-04-30 00:21 | -25.72793 | -45.97025 | 37032 ft | 473 kts | 37° |
| 2026-04-30 00:21 | -25.68221 | -45.91780 | 37033 ft | 473 kts | 37° |
| 2026-04-30 00:22 | -25.63647 | -45.86542 | 37034 ft | 473 kts | 37° |
| 2026-04-30 00:22 | -25.59079 | -45.81306 | 37030 ft | 473 kts | 37° |
| 2026-04-30 00:23 | -25.54506 | -45.76060 | 37031 ft | 473 kts | 38° |
| 2026-04-30 00:23 | -25.49936 | -45.70818 | 37021 ft | 473 kts | 38° |
| 2026-04-30 00:24 | -25.45356 | -45.65577 | 37023 ft | 474 kts | 38° |
| 2026-04-30 00:24 | -25.40766 | -45.60346 | 37023 ft | 474 kts | 38° |
| 2026-04-30 00:25 | -25.36168 | -45.55115 | 37025 ft | 474 kts | 38° |
| 2026-04-30 00:25 | -25.31600 | -45.49917 | 37023 ft | 474 kts | 38° |
| 2026-04-30 00:26 | -25.27006 | -45.44681 | 37024 ft | 475 kts | 38° |
| 2026-04-30 00:26 | -25.22411 | -45.39448 | 37026 ft | 474 kts | 38° |
| 2026-04-30 00:27 | -25.17815 | -45.34224 | 37025 ft | 474 kts | 38° |
| 2026-04-30 00:27 | -25.13211 | -45.29003 | 37026 ft | 474 kts | 38° |
| 2026-04-30 00:28 | -25.08609 | -45.23800 | 37024 ft | 474 kts | 38° |
| 2026-04-30 00:28 | -25.04004 | -45.18601 | 37028 ft | 473 kts | 38° |
| 2026-04-30 00:29 | -24.99402 | -45.13406 | 37033 ft | 473 kts | 38° |
| 2026-04-30 00:29 | -24.94803 | -45.08214 | 37031 ft | 473 kts | 38° |
| 2026-04-30 00:30 | -24.90236 | -45.03062 | 37031 ft | 473 kts | 38° |
| 2026-04-30 00:30 | -24.85638 | -44.97881 | 37029 ft | 473 kts | 38° |
| 2026-04-30 00:31 | -24.81037 | -44.92712 | 37024 ft | 472 kts | 38° |
| 2026-04-30 00:31 | -24.76434 | -44.87548 | 37025 ft | 472 kts | 38° |
| 2026-04-30 00:32 | -24.71837 | -44.82388 | 37028 ft | 472 kts | 38° |
| 2026-04-30 00:32 | -24.67239 | -44.77229 | 37034 ft | 472 kts | 38° |
| 2026-04-30 00:33 | -24.62641 | -44.72080 | 37036 ft | 472 kts | 38° |
| 2026-04-30 00:33 | -24.58046 | -44.66940 | 37037 ft | 471 kts | 38° |
| 2026-04-30 00:34 | -24.53456 | -44.61811 | 37043 ft | 470 kts | 38° |
| 2026-04-30 00:34 | -24.48866 | -44.56697 | 37044 ft | 470 kts | 38° |
| 2026-04-30 00:35 | -24.44252 | -44.51630 | 37047 ft | 469 kts | 37° |
| 2026-04-30 00:35 | -24.39630 | -44.46601 | 37044 ft | 468 kts | 37° |
| 2026-04-30 00:36 | -24.35006 | -44.41583 | 37048 ft | 467 kts | 37° |
| 2026-04-30 00:36 | -24.30425 | -44.36601 | 37048 ft | 466 kts | 37° |
| 2026-04-30 00:37 | -24.25827 | -44.31590 | 37050 ft | 466 kts | 37° |
| 2026-04-30 00:37 | -24.21236 | -44.26584 | 37054 ft | 465 kts | 37° |
| 2026-04-30 00:38 | -24.16650 | -44.21605 | 37053 ft | 464 kts | 37° |
| 2026-04-30 00:38 | -24.12060 | -44.16649 | 37050 ft | 463 kts | 38° |
| 2026-04-30 00:39 | -24.07471 | -44.11686 | 37046 ft | 463 kts | 38° |
| 2026-04-30 00:39 | -24.02891 | -44.06727 | 37042 ft | 463 kts | 38° |
| 2026-04-30 00:40 | -23.98304 | -44.01774 | 37035 ft | 464 kts | 38° |
| 2026-04-30 00:40 | -23.93710 | -43.96817 | 37027 ft | 464 kts | 38° |
| 2026-04-30 00:41 | -23.89110 | -43.91860 | 37024 ft | 465 kts | 38° |
| 2026-04-30 00:41 | -23.84503 | -43.86894 | 37024 ft | 466 kts | 38° |
| 2026-04-30 00:42 | -23.79919 | -43.81958 | 37020 ft | 466 kts | 38° |
| 2026-04-30 00:42 | -23.75294 | -43.76998 | 37021 ft | 466 kts | 38° |
| 2026-04-30 00:43 | -23.70668 | -43.72026 | 37022 ft | 467 kts | 38° |
| 2026-04-30 00:43 | -23.66038 | -43.67055 | 37028 ft | 467 kts | 38° |
| 2026-04-30 00:44 | -23.61418 | -43.62078 | 37033 ft | 468 kts | 39° |
| 2026-04-30 00:44 | -23.56891 | -43.56962 | 37042 ft | 468 kts | 40° |
| 2026-04-30 00:45 | -23.52417 | -43.51807 | 37048 ft | 468 kts | 40° |
| 2026-04-30 00:45 | -23.47928 | -43.46675 | 37049 ft | 467 kts | 40° |
| 2026-04-30 00:46 | -23.43449 | -43.41548 | 37043 ft | 467 kts | 40° |
| 2026-04-30 00:46 | -23.38983 | -43.36407 | 37046 ft | 467 kts | 41° |
| 2026-04-30 00:47 | -23.34520 | -43.31272 | 37039 ft | 467 kts | 41° |
| 2026-04-30 00:47 | -23.30057 | -43.26145 | 37041 ft | 466 kts | 40° |
| 2026-04-30 00:48 | -23.25547 | -43.21082 | 37041 ft | 466 kts | 40° |
| 2026-04-30 00:48 | -23.21003 | -43.16067 | 37044 ft | 465 kts | 39° |
| 2026-04-30 00:49 | -23.16470 | -43.11044 | 37036 ft | 466 kts | 40° |
| 2026-04-30 00:49 | -23.11941 | -43.06009 | 37029 ft | 466 kts | 40° |
| 2026-04-30 00:50 | -23.07418 | -43.00977 | 37028 ft | 466 kts | 40° |
| 2026-04-30 00:50 | -23.02926 | -42.95979 | 37029 ft | 465 kts | 40° |
| 2026-04-30 00:51 | -22.98397 | -42.90959 | 37029 ft | 465 kts | 40° |
| 2026-04-30 00:51 | -22.94451 | -42.85322 | 37033 ft | 473 kts | 52° |
| 2026-04-30 00:52 | -22.90886 | -42.79313 | 37037 ft | 473 kts | 52° |
| 2026-04-30 00:52 | -22.87311 | -42.73320 | 37036 ft | 473 kts | 52° |
| 2026-04-30 00:53 | -22.83653 | -42.67402 | 37037 ft | 469 kts | 45° |
| 2026-04-30 00:53 | -22.78877 | -42.62825 | 37035 ft | 452 kts | 25° |
| 2026-04-30 00:54 | -22.73237 | -42.60027 | 37028 ft | 445 kts | 16° |
| 2026-04-30 00:54 | -22.67784 | -42.57609 | 37038 ft | 445 kts | 17° |
| 2026-04-30 00:55 | -22.62057 | -42.55047 | 37045 ft | 445 kts | 17° |
| 2026-04-30 00:55 | -22.53460 | -42.51211 | 37056 ft | 446 kts | 17° |
| 2026-04-30 00:56 | -22.47724 | -42.48661 | 37052 ft | 446 kts | 17° |
| 2026-04-30 00:56 | -22.41976 | -42.46118 | 37062 ft | 446 kts | 17° |
| 2026-04-30 00:57 | -22.36229 | -42.43566 | 37066 ft | 446 kts | 17° |
| 2026-04-30 00:57 | -22.30484 | -42.41009 | 37077 ft | 447 kts | 17° |
| 2026-04-30 00:58 | -22.24736 | -42.38463 | 37079 ft | 447 kts | 17° |
| 2026-04-30 00:58 | -22.18990 | -42.35927 | 37079 ft | 447 kts | 17° |
| 2026-04-30 00:59 | -22.13237 | -42.33383 | 37078 ft | 447 kts | 17° |
| 2026-04-30 00:59 | -22.07521 | -42.30857 | 37073 ft | 447 kts | 17° |
| 2026-04-30 01:00 | -22.01762 | -42.28324 | 37065 ft | 447 kts | 17° |
| 2026-04-30 01:00 | -21.96008 | -42.25786 | 37062 ft | 447 kts | 17° |
| 2026-04-30 01:01 | -21.90249 | -42.23242 | 37061 ft | 447 kts | 17° |
| 2026-04-30 01:01 | -21.84494 | -42.20700 | 37058 ft | 448 kts | 20° |
| 2026-04-30 01:02 | -21.78969 | -42.17500 | 37049 ft | 452 kts | 24° |
| 2026-04-30 01:02 | -21.73473 | -42.14207 | 37051 ft | 452 kts | 25° |
| 2026-04-30 01:03 | -21.67981 | -42.10908 | 37040 ft | 452 kts | 25° |
| 2026-04-30 01:03 | -21.62483 | -42.07622 | 37049 ft | 452 kts | 25° |
| 2026-04-30 01:04 | -21.56977 | -42.04341 | 37046 ft | 453 kts | 25° |
| 2026-04-30 01:04 | -21.51473 | -42.01057 | 37048 ft | 453 kts | 25° |
| 2026-04-30 01:05 | -21.45966 | -41.97773 | 37040 ft | 453 kts | 25° |
| 2026-04-30 01:05 | -21.40491 | -41.94512 | 37050 ft | 453 kts | 25° |
| 2026-04-30 01:06 | -21.34982 | -41.91236 | 37057 ft | 453 kts | 25° |
| 2026-04-30 01:06 | -21.29470 | -41.87961 | 37056 ft | 453 kts | 25° |
| 2026-04-30 01:07 | -21.24855 | -41.85221 | 37058 ft | 453 kts | 25° |
| 2026-04-30 01:07 | -21.19341 | -41.81948 | 37059 ft | 453 kts | 25° |
| 2026-04-30 01:08 | -21.13826 | -41.78676 | 37067 ft | 453 kts | 25° |
| 2026-04-30 01:08 | -21.08351 | -41.75432 | 37075 ft | 453 kts | 25° |
| 2026-04-30 01:09 | -21.02832 | -41.72167 | 37073 ft | 453 kts | 25° |
| 2026-04-30 01:09 | -20.97312 | -41.68896 | 37080 ft | 454 kts | 25° |
| 2026-04-30 01:10 | -20.91790 | -41.65625 | 37084 ft | 454 kts | 25° |
| 2026-04-30 01:10 | -20.86264 | -41.62360 | 37091 ft | 454 kts | 26° |
| 2026-04-30 01:11 | -20.80736 | -41.59102 | 37095 ft | 454 kts | 26° |
| 2026-04-30 01:11 | -20.75203 | -41.55848 | 37102 ft | 454 kts | 26° |
| 2026-04-30 01:12 | -20.69670 | -41.52591 | 37101 ft | 454 kts | 26° |
| 2026-04-30 01:12 | -20.64137 | -41.49335 | 37106 ft | 454 kts | 26° |
| 2026-04-30 01:13 | -20.58789 | -41.46191 | 37110 ft | 454 kts | 26° |
| 2026-04-30 01:13 | -20.53266 | -41.42940 | 37114 ft | 455 kts | 26° |
| 2026-04-30 01:14 | -20.47760 | -41.39704 | 37119 ft | 455 kts | 26° |
| 2026-04-30 01:14 | -20.42221 | -41.36438 | 37127 ft | 454 kts | 26° |
| 2026-04-30 01:15 | -20.36689 | -41.33157 | 37131 ft | 455 kts | 26° |
| 2026-04-30 01:15 | -20.31161 | -41.29886 | 37135 ft | 454 kts | 26° |
| 2026-04-30 01:16 | -20.25628 | -41.26619 | 37138 ft | 454 kts | 26° |
| 2026-04-30 01:16 | -20.20094 | -41.23345 | 37137 ft | 454 kts | 27° |
| 2026-04-30 01:17 | -20.14564 | -41.20081 | 37136 ft | 454 kts | 27° |
| 2026-04-30 01:17 | -20.09071 | -41.16854 | 37134 ft | 454 kts | 27° |
| 2026-04-30 01:18 | -20.03490 | -41.13576 | 37130 ft | 455 kts | 27° |
| 2026-04-30 01:18 | -19.97984 | -41.10344 | 37131 ft | 455 kts | 27° |
| 2026-04-30 01:19 | -19.92512 | -41.07130 | 37129 ft | 455 kts | 27° |
| 2026-04-30 01:19 | -19.86907 | -41.03836 | 37127 ft | 455 kts | 27° |
| 2026-04-30 01:20 | -19.81374 | -41.00593 | 37121 ft | 455 kts | 27° |
| 2026-04-30 01:20 | -19.75830 | -40.97363 | 37117 ft | 454 kts | 27° |
| 2026-04-30 01:21 | -19.70281 | -40.94139 | 37111 ft | 454 kts | 27° |
| 2026-04-30 01:21 | -19.64733 | -40.90923 | 37109 ft | 454 kts | 27° |
| 2026-04-30 01:22 | -19.59185 | -40.87699 | 37112 ft | 454 kts | 27° |
| 2026-04-30 01:22 | -19.53641 | -40.84480 | 37106 ft | 454 kts | 27° |
| 2026-04-30 01:23 | -19.48092 | -40.81269 | 37109 ft | 454 kts | 27° |
| 2026-04-30 01:23 | -19.42546 | -40.78065 | 37111 ft | 454 kts | 27° |
| 2026-04-30 01:24 | -19.37043 | -40.74887 | 37111 ft | 454 kts | 27° |
| 2026-04-30 01:24 | -19.31501 | -40.71684 | 37109 ft | 454 kts | 27° |
| 2026-04-30 01:25 | -19.25962 | -40.68489 | 37110 ft | 453 kts | 27° |
| 2026-04-30 01:25 | -19.20416 | -40.65305 | 37113 ft | 453 kts | 27° |
| 2026-04-30 01:26 | -19.14870 | -40.62116 | 37114 ft | 453 kts | 27° |
| 2026-04-30 01:26 | -19.09328 | -40.58924 | 37111 ft | 453 kts | 27° |
| 2026-04-30 01:27 | -19.03787 | -40.55737 | 37107 ft | 453 kts | 28° |
| 2026-04-30 01:27 | -18.98249 | -40.52549 | 37104 ft | 453 kts | 28° |
| 2026-04-30 01:28 | -18.92705 | -40.49362 | 37103 ft | 453 kts | 28° |
| 2026-04-30 01:28 | -18.87172 | -40.46189 | 37104 ft | 453 kts | 28° |
| 2026-04-30 01:29 | -18.81665 | -40.43039 | 37099 ft | 453 kts | 28° |
| 2026-04-30 01:29 | -18.76131 | -40.39874 | 37101 ft | 453 kts | 28° |
| 2026-04-30 01:30 | -18.70596 | -40.36698 | 37097 ft | 452 kts | 28° |
| 2026-04-30 01:30 | -18.65267 | -40.33636 | 37098 ft | 452 kts | 28° |
| 2026-04-30 01:31 | -18.59729 | -40.30474 | 37094 ft | 452 kts | 28° |
| 2026-04-30 01:31 | -18.54201 | -40.27327 | 37094 ft | 452 kts | 28° |
| 2026-04-30 01:32 | -18.48671 | -40.24177 | 37092 ft | 452 kts | 28° |
| 2026-04-30 01:32 | -18.43144 | -40.21023 | 37090 ft | 452 kts | 28° |
| 2026-04-30 01:33 | -18.37617 | -40.17868 | 37093 ft | 452 kts | 28° |
| 2026-04-30 01:33 | -18.32127 | -40.14737 | 37090 ft | 452 kts | 28° |
| 2026-04-30 01:34 | -18.30450 | -40.13783 | 37090 ft | 452 kts | 28° |
| 2026-04-30 01:48 | -18.28206 | -40.12682 | 37044 ft | 450 kts | 23° |
| 2026-04-30 01:49 | -18.22611 | -40.09728 | 37058 ft | 450 kts | 30° |
| 2026-04-30 01:49 | -18.17213 | -40.06376 | 36692 ft | 453 kts | 31° |
| 2026-04-30 01:50 | -18.14489 | -40.04707 | 36109 ft | 452 kts | 30° |
| 2026-04-30 01:50 | -18.11757 | -40.03091 | 35585 ft | 449 kts | 29° |
| 2026-04-30 01:50 | -18.09016 | -40.01521 | 35043 ft | 448 kts | 28° |
| 2026-04-30 01:50 | -18.06275 | -39.99984 | 34511 ft | 446 kts | 28° |
| 2026-04-30 01:51 | -18.03536 | -39.98463 | 33948 ft | 445 kts | 28° |
| 2026-04-30 01:51 | -18.00805 | -39.96946 | 33384 ft | 442 kts | 28° |
| 2026-04-30 01:51 | -17.98099 | -39.95428 | 32858 ft | 439 kts | 28° |
| 2026-04-30 01:51 | -17.95420 | -39.93905 | 32337 ft | 436 kts | 29° |
| 2026-04-30 01:52 | -17.92766 | -39.92386 | 31812 ft | 434 kts | 29° |
| 2026-04-30 01:52 | -17.90127 | -39.90868 | 31301 ft | 431 kts | 29° |
| 2026-04-30 01:52 | -17.87505 | -39.89359 | 30793 ft | 428 kts | 29° |
| 2026-04-30 01:52 | -17.84900 | -39.87865 | 30303 ft | 426 kts | 29° |
| 2026-04-30 01:53 | -17.82304 | -39.86381 | 29759 ft | 423 kts | 29° |
| 2026-04-30 01:53 | -17.80600 | -39.85409 | 29442 ft | 419 kts | 29° |
| 2026-04-30 01:53 | -17.78049 | -39.83954 | 28979 ft | 414 kts | 29° |
| 2026-04-30 01:53 | -17.75534 | -39.82521 | 28524 ft | 409 kts | 29° |
| 2026-04-30 01:54 | -17.73047 | -39.81106 | 28077 ft | 404 kts | 28° |
| 2026-04-30 01:54 | -17.70591 | -39.79710 | 27627 ft | 400 kts | 29° |
| 2026-04-30 01:54 | -17.68156 | -39.78325 | 27160 ft | 396 kts | 29° |
| 2026-04-30 01:54 | -17.65751 | -39.76953 | 26710 ft | 392 kts | 29° |
| 2026-04-30 01:55 | -17.63365 | -39.75590 | 26227 ft | 389 kts | 29° |
| 2026-04-30 01:55 | -17.61135 | -39.74318 | 25790 ft | 386 kts | 29° |
| 2026-04-30 01:55 | -17.58897 | -39.73045 | 25331 ft | 384 kts | 29° |
| 2026-04-30 01:55 | -17.56554 | -39.71716 | 24840 ft | 382 kts | 28° |
| 2026-04-30 01:56 | -17.54217 | -39.70391 | 24348 ft | 381 kts | 28° |
| 2026-04-30 01:56 | -17.51891 | -39.69071 | 23847 ft | 379 kts | 28° |
| 2026-04-30 01:56 | -17.49699 | -39.67827 | 23330 ft | 378 kts | 28° |
| 2026-04-30 01:56 | -17.47393 | -39.66516 | 22816 ft | 376 kts | 29° |
| 2026-04-30 01:57 | -17.45105 | -39.65214 | 22334 ft | 373 kts | 29° |
| 2026-04-30 01:57 | -17.42834 | -39.63923 | 21857 ft | 370 kts | 29° |
| 2026-04-30 01:57 | -17.40576 | -39.62640 | 21393 ft | 368 kts | 29° |
| 2026-04-30 01:57 | -17.38336 | -39.61368 | 20914 ft | 366 kts | 29° |
| 2026-04-30 01:58 | -17.36131 | -39.60118 | 20457 ft | 364 kts | 29° |
| 2026-04-30 01:58 | -17.33903 | -39.58857 | 20000 ft | 363 kts | 29° |
| 2026-04-30 01:58 | -17.31659 | -39.57586 | 19528 ft | 362 kts | 29° |
| 2026-04-30 01:58 | -17.29447 | -39.56333 | 19075 ft | 361 kts | 29° |
| 2026-04-30 01:59 | -17.25104 | -39.53874 | 18165 ft | 350 kts | 29° |
| 2026-04-30 01:59 | -17.22965 | -39.52665 | 17689 ft | 349 kts | 30° |
| 2026-04-30 01:59 | -17.20838 | -39.51464 | 17250 ft | 347 kts | 30° |
| 2026-04-30 02:00 | -17.18721 | -39.50263 | 16821 ft | 345 kts | 30° |
| 2026-04-30 02:00 | -17.16619 | -39.49072 | 16400 ft | 343 kts | 30° |
| 2026-04-30 02:00 | -17.14523 | -39.47885 | 15982 ft | 342 kts | 30° |
| 2026-04-30 02:00 | -17.12435 | -39.46703 | 15566 ft | 341 kts | 30° |
| 2026-04-30 02:01 | -17.10351 | -39.45526 | 15156 ft | 340 kts | 31° |
| 2026-04-30 02:01 | -17.08279 | -39.44355 | 14800 ft | 337 kts | 31° |
| 2026-04-30 02:01 | -17.06245 | -39.43205 | 14337 ft | 327 kts | 31° |
| 2026-04-30 02:01 | -17.04266 | -39.42090 | 13940 ft | 322 kts | 31° |
| 2026-04-30 02:02 | -17.02225 | -39.41110 | 13509 ft | 325 kts | 21° |
| 2026-04-30 02:02 | -17.00074 | -39.40379 | 13095 ft | 325 kts | 21° |
| 2026-04-30 02:02 | -16.97922 | -39.39653 | 12695 ft | 324 kts | 21° |
| 2026-04-30 02:02 | -16.95781 | -39.38932 | 12284 ft | 323 kts | 21° |
| 2026-04-30 02:03 | -16.93645 | -39.38211 | 11870 ft | 322 kts | 20° |
| 2026-04-30 02:03 | -16.91513 | -39.37493 | 11451 ft | 322 kts | 20° |
| 2026-04-30 02:03 | -16.89382 | -39.36775 | 11030 ft | 321 kts | 20° |
| 2026-04-30 02:03 | -16.87261 | -39.36057 | 10668 ft | 318 kts | 20° |
| 2026-04-30 02:04 | -16.85155 | -39.35348 | 10271 ft | 317 kts | 20° |
| 2026-04-30 02:04 | -16.83054 | -39.34643 | 9831 ft | 317 kts | 20° |
| 2026-04-30 02:04 | -16.80993 | -39.33950 | 9690 ft | 305 kts | 20° |
| 2026-04-30 02:04 | -16.79000 | -39.33280 | 9474 ft | 298 kts | 20° |
| 2026-04-30 02:05 | -16.77041 | -39.32620 | 9120 ft | 294 kts | 20° |
| 2026-04-30 02:05 | -16.75113 | -39.31970 | 8569 ft | 289 kts | 20° |
| 2026-04-30 02:05 | -16.73203 | -39.31325 | 7908 ft | 287 kts | 20° |
| 2026-04-30 02:05 | -16.71316 | -39.30688 | 7262 ft | 284 kts | 20° |
| 2026-04-30 02:06 | -16.69456 | -39.30059 | 6720 ft | 277 kts | 20° |
| 2026-04-30 02:06 | -16.67650 | -39.29451 | 6251 ft | 268 kts | 20° |
| 2026-04-30 02:06 | -16.65911 | -39.28867 | 5831 ft | 258 kts | 20° |
| 2026-04-30 02:06 | -16.64218 | -39.28297 | 5418 ft | 256 kts | 20° |
| 2026-04-30 02:07 | -16.62523 | -39.27724 | 5009 ft | 256 kts | 20° |
| 2026-04-30 02:07 | -16.60847 | -39.27161 | 4579 ft | 256 kts | 20° |
| 2026-04-30 02:07 | -16.59145 | -39.26591 | 4123 ft | 258 kts | 18° |
| 2026-04-30 02:07 | -16.57367 | -39.26286 | 3684 ft | 261 kts | 6° |
| 2026-04-30 02:08 | -16.55554 | -39.26144 | 3227 ft | 261 kts | 6° |
| 2026-04-30 02:08 | -16.53740 | -39.26002 | 2762 ft | 261 kts | 6° |
| 2026-04-30 02:08 | -16.51982 | -39.25859 | 2500 ft | 242 kts | 8° |
| 2026-04-30 02:08 | -16.50443 | -39.25426 | 2413 ft | 217 kts | 27° |
| 2026-04-30 02:09 | -16.49233 | -39.24641 | 2335 ft | 193 kts | 43° |
| 2026-04-30 02:09 | -16.48381 | -39.23697 | 2282 ft | 166 kts | 56° |
| 2026-04-30 02:09 | -16.47840 | -39.22731 | 2218 ft | 146 kts | 68° |
| 2026-04-30 02:09 | -16.47537 | -39.21760 | 2137 ft | 138 kts | 75° |
| 2026-04-30 02:10 | -16.47277 | -39.20809 | 2078 ft | 135 kts | 76° |
| 2026-04-30 02:10 | -16.47026 | -39.19868 | 2017 ft | 134 kts | 76° |
| 2026-04-30 02:10 | -16.46773 | -39.18934 | 2002 ft | 134 kts | 76° |
| 2026-04-30 02:10 | -16.46520 | -39.17996 | 1903 ft | 134 kts | 76° |
| 2026-04-30 02:11 | -16.46270 | -39.17060 | 1760 ft | 134 kts | 76° |
| 2026-04-30 02:11 | -16.46022 | -39.16125 | 1593 ft | 134 kts | 76° |
| 2026-04-30 02:11 | -16.45769 | -39.15191 | 1425 ft | 134 kts | 75° |
| 2026-04-30 02:11 | -16.45514 | -39.14254 | 1255 ft | 135 kts | 75° |
| 2026-04-30 02:12 | -16.45262 | -39.13314 | 1070 ft | 135 kts | 75° |
| 2026-04-30 02:12 | -16.45012 | -39.12369 | 903 ft | 136 kts | 75° |
| 2026-04-30 02:12 | -16.44763 | -39.11433 | 722 ft | 136 kts | 75° |
| 2026-04-30 02:12 | -16.44503 | -39.10482 | 538 ft | 137 kts | 74° |
| 2026-04-30 02:13 | -16.44239 | -39.09528 | 351 ft | 138 kts | 75° |
| 2026-04-30 02:13 | -16.43984 | -39.08573 | 162 ft | 133 kts | 75° |
| 2026-04-30 02:13 | -16.43794 | -39.07876 | 160 ft | 58 kts | 74° |
| 2026-04-30 02:13 | -16.43732 | -39.07640 | 162 ft | 29 kts | 75° |
| 2026-04-30 02:14 | -16.43676 | -39.07436 | 163 ft | 30 kts | 74° |
| 2026-04-30 02:14 | -16.43633 | -39.07269 | 161 ft | 11 kts | 88° |
| 2026-04-30 02:14 | -16.43633 | -39.07211 | 160 ft | 6 kts | 4° |
| 2026-04-30 02:14 | -16.43627 | -39.07252 | 161 ft | 9 kts | 255° |
| 2026-04-30 02:15 | -16.43649 | -39.07339 | 162 ft | 16 kts | 255° |
| 2026-04-30 02:15 | -16.43685 | -39.07473 | 163 ft | 23 kts | 253° |
| 2026-04-30 02:15 | -16.43735 | -39.07657 | 162 ft | 30 kts | 254° |
| 2026-04-30 02:15 | -16.43799 | -39.07887 | 160 ft | 36 kts | 254° |
| 2026-04-30 02:16 | -16.43854 | -39.08090 | 160 ft | 24 kts | 254° |
| 2026-04-30 02:16 | -16.43938 | -39.08129 | 160 ft | 13 kts | 168° |
| 2026-04-30 02:16 | -16.43989 | -39.08116 | 160 ft | 10 kts | 165° |
| 2026-04-30 02:16 | -16.44010 | -39.08085 | 160 ft | 5 kts | 69° |
| 2026-04-30 02:17 | -16.44028 | -39.08068 | 160 ft | 2 kts | 163° |
| 2026-04-30 02:17 | -16.44051 | -39.08061 | 160 ft | 0 kts | 164° |
| 2026-04-30 02:17 | -16.44057 | -39.08059 | 160 ft | 0 kts | 164° |